sensor_id;sensor_type;location;lat;lon;timestamp;P1;durP1;ratioP1;P2;durP2;ratioP2
30462;SDS011;17256;43.618;25.336;2023-02-15T07:23:47;22.80;;;17.53;;
30462;SDS011;17256;43.618;25.336;2023-02-15T07:57:55;30.67;;;22.03;;
30462;SDS011;17256;43.618;25.336;2023-02-15T08:00:37;22.07;;;17.67;;
30462;SDS011;17256;43.618;25.336;2023-02-15T08:03:27;26.10;;;19.37;;
30462;SDS011;17256;43.618;25.336;2023-02-15T08:06:57;30.53;;;22.33;;
30462;SDS011;17256;43.618;25.336;2023-02-15T08:09:49;29.43;;;20.93;;
30462;SDS011;17256;43.618;25.336;2023-02-15T08:13:01;25.30;;;20.13;;
30462;SDS011;17256;43.618;25.336;2023-02-15T08:16:15;24.03;;;17.50;;
30462;SDS011;17256;43.618;25.336;2023-02-15T08:19:33;22.77;;;18.03;;
30462;SDS011;17256;43.618;25.336;2023-02-15T08:23:24;21.30;;;15.97;;
30462;SDS011;17256;43.618;25.336;2023-02-15T08:26:15;22.30;;;17.93;;
30462;SDS011;17256;43.618;25.336;2023-02-15T08:29:08;24.90;;;18.37;;
30462;SDS011;17256;43.618;25.336;2023-02-15T08:31:46;28.17;;;17.77;;
30462;SDS011;17256;43.618;25.336;2023-02-15T08:37:54;25.47;;;19.10;;
30462;SDS011;17256;43.618;25.336;2023-02-15T08:40:30;21.50;;;15.70;;
30462;SDS011;17256;43.618;25.336;2023-02-15T08:43:09;24.03;;;17.77;;
30462;SDS011;17256;43.618;25.336;2023-02-15T08:45:42;27.70;;;19.70;;
30462;SDS011;17256;43.618;25.336;2023-02-15T08:48:41;26.47;;;19.93;;
30462;SDS011;17256;43.618;25.336;2023-02-15T08:52:14;19.67;;;16.17;;
30462;SDS011;17256;43.618;25.336;2023-02-15T08:55:32;23.50;;;18.50;;
30462;SDS011;17256;43.618;25.336;2023-02-15T08:58:47;22.80;;;17.00;;
30462;SDS011;17256;43.618;25.336;2023-02-15T09:01:28;21.70;;;16.43;;
30462;SDS011;17256;43.618;25.336;2023-02-15T09:05:19;24.93;;;18.57;;
30462;SDS011;17256;43.618;25.336;2023-02-15T11:52:16;17.50;;;15.47;;
30462;SDS011;17256;43.618;25.336;2023-02-15T11:54:48;15.90;;;13.03;;
30462;SDS011;17256;43.618;25.336;2023-02-15T11:57:28;16.93;;;15.13;;
30462;SDS011;17256;43.618;25.336;2023-02-15T12:00:24;19.03;;;14.07;;
30462;SDS011;17256;43.618;25.336;2023-02-15T12:06:38;15.97;;;12.47;;
30462;SDS011;17256;43.618;25.336;2023-02-15T12:09:17;14.77;;;11.93;;
30462;SDS011;17256;43.618;25.336;2023-02-15T12:12:25;16.10;;;13.90;;
30462;SDS011;17256;43.618;25.336;2023-02-15T12:15:30;21.10;;;15.93;;
30462;SDS011;17256;43.618;25.336;2023-02-15T12:18:55;16.27;;;13.00;;
30462;SDS011;17256;43.618;25.336;2023-02-15T12:21:51;19.40;;;14.33;;
30462;SDS011;17256;43.618;25.336;2023-02-15T12:27:40;21.53;;;14.97;;
30462;SDS011;17256;43.618;25.336;2023-02-15T12:33:59;24.30;;;19.87;;
30462;SDS011;17256;43.618;25.336;2023-02-15T12:37:07;21.33;;;17.07;;
30462;SDS011;17256;43.618;25.336;2023-02-15T12:43:52;21.17;;;15.47;;
30462;SDS011;17256;43.618;25.336;2023-02-15T12:50:06;16.47;;;12.17;;
30462;SDS011;17256;43.618;25.336;2023-02-15T13:04:48;15.87;;;13.13;;
30462;SDS011;17256;43.618;25.336;2023-02-15T13:07:15;14.17;;;11.33;;
30462;SDS011;17256;43.618;25.336;2023-02-15T13:10:18;15.03;;;11.50;;
30462;SDS011;17256;43.618;25.336;2023-02-15T13:13:16;11.93;;;10.67;;
30462;SDS011;17256;43.618;25.336;2023-02-15T13:28:40;17.40;;;12.20;;
30462;SDS011;17256;43.618;25.336;2023-02-15T13:31:20;15.53;;;12.70;;
30462;SDS011;17256;43.618;25.336;2023-02-15T13:40:18;11.43;;;10.23;;
30462;SDS011;17256;43.618;25.336;2023-02-15T13:52:23;86.97;;;64.00;;
30462;SDS011;17256;43.618;25.336;2023-02-15T14:05:02;23.00;;;16.63;;
30462;SDS011;17256;43.618;25.336;2023-02-15T14:08:33;15.73;;;13.97;;
30462;SDS011;17256;43.618;25.336;2023-02-15T14:31:03;41.60;;;30.73;;
30462;SDS011;17256;43.618;25.336;2023-02-15T14:37:17;48.53;;;28.37;;
30462;SDS011;17256;43.618;25.336;2023-02-15T14:43:09;67.70;;;44.43;;
30462;SDS011;17256;43.618;25.336;2023-02-15T14:46:01;40.27;;;24.27;;
30462;SDS011;17256;43.618;25.336;2023-02-15T14:49:12;12.57;;;9.70;;
30462;SDS011;17256;43.618;25.336;2023-02-15T14:52:24;46.93;;;27.67;;
30462;SDS011;17256;43.618;25.336;2023-02-15T14:55:36;24.97;;;15.33;;
30462;SDS011;17256;43.618;25.336;2023-02-15T14:58:09;30.73;;;18.30;;
30462;SDS011;17256;43.618;25.336;2023-02-15T15:00:43;36.47;;;19.93;;
30462;SDS011;17256;43.618;25.336;2023-02-15T16:10:05;136.10;;;106.17;;
30462;SDS011;17256;43.618;25.336;2023-02-15T16:13:28;130.80;;;90.20;;
30462;SDS011;17256;43.618;25.336;2023-02-15T16:43:10;67.57;;;44.07;;
30462;SDS011;17256;43.618;25.336;2023-02-15T16:46:15;56.27;;;37.10;;
30462;SDS011;17256;43.618;25.336;2023-02-15T16:49:24;49.37;;;34.97;;
30462;SDS011;17256;43.618;25.336;2023-02-15T16:52:37;55.80;;;37.97;;
30462;SDS011;17256;43.618;25.336;2023-02-15T16:55:28;41.53;;;32.90;;
30462;SDS011;17256;43.618;25.336;2023-02-15T16:58:15;38.00;;;29.77;;
30462;SDS011;17256;43.618;25.336;2023-02-15T17:01:28;45.03;;;34.80;;
30462;SDS011;17256;43.618;25.336;2023-02-15T17:04:21;55.13;;;41.30;;
30462;SDS011;17256;43.618;25.336;2023-02-15T17:07:19;49.07;;;37.33;;
30462;SDS011;17256;43.618;25.336;2023-02-15T17:14:18;48.20;;;31.40;;
30462;SDS011;17256;43.618;25.336;2023-02-15T17:17:06;39.60;;;29.00;;
30462;SDS011;17256;43.618;25.336;2023-02-15T17:19:52;34.40;;;24.13;;
30462;SDS011;17256;43.618;25.336;2023-02-15T17:22:35;29.00;;;21.17;;
30462;SDS011;17256;43.618;25.336;2023-02-15T17:26:27;40.67;;;26.27;;
30462;SDS011;17256;43.618;25.336;2023-02-15T17:30:36;67.23;;;39.93;;
30462;SDS011;17256;43.618;25.336;2023-02-15T17:33:25;82.63;;;42.40;;
30462;SDS011;17256;43.618;25.336;2023-02-15T17:39:35;52.77;;;32.20;;
30462;SDS011;17256;43.618;25.336;2023-02-15T17:42:08;92.93;;;51.80;;
30462;SDS011;17256;43.618;25.336;2023-02-15T17:45:10;103.33;;;57.83;;
30462;SDS011;17256;43.618;25.336;2023-02-15T17:51:19;63.10;;;40.13;;
30462;SDS011;17256;43.618;25.336;2023-02-15T17:54:19;50.33;;;32.77;;
30462;SDS011;17256;43.618;25.336;2023-02-15T17:57:13;46.33;;;30.37;;
30462;SDS011;17256;43.618;25.336;2023-02-15T18:00:12;40.43;;;26.33;;
30462;SDS011;17256;43.618;25.336;2023-02-15T18:03:14;40.97;;;26.53;;
30462;SDS011;17256;43.618;25.336;2023-02-15T18:06:43;33.93;;;22.70;;
30462;SDS011;17256;43.618;25.336;2023-02-15T18:10:11;35.47;;;21.37;;
30462;SDS011;17256;43.618;25.336;2023-02-15T18:13:10;48.00;;;31.43;;
30462;SDS011;17256;43.618;25.336;2023-02-15T18:15:49;52.87;;;34.87;;
30462;SDS011;17256;43.618;25.336;2023-02-15T18:18:33;44.07;;;29.00;;
30462;SDS011;17256;43.618;25.336;2023-02-15T18:21:08;38.30;;;25.50;;
30462;SDS011;17256;43.618;25.336;2023-02-15T18:23:38;46.27;;;28.87;;
30462;SDS011;17256;43.618;25.336;2023-02-15T18:26:11;58.60;;;36.83;;
30462;SDS011;17256;43.618;25.336;2023-02-15T18:28:57;60.10;;;39.93;;
30462;SDS011;17256;43.618;25.336;2023-02-15T18:31:40;53.97;;;32.10;;
30462;SDS011;17256;43.618;25.336;2023-02-15T18:34:27;43.80;;;28.43;;
30462;SDS011;17256;43.618;25.336;2023-02-15T18:37:14;44.10;;;30.03;;
30462;SDS011;17256;43.618;25.336;2023-02-15T18:39:56;60.97;;;36.47;;
30462;SDS011;17256;43.618;25.336;2023-02-15T18:42:30;54.40;;;31.77;;
30462;SDS011;17256;43.618;25.336;2023-02-15T18:45:03;44.83;;;28.57;;
30462;SDS011;17256;43.618;25.336;2023-02-15T18:47:45;41.77;;;27.17;;
30462;SDS011;17256;43.618;25.336;2023-02-15T18:50:15;48.17;;;34.10;;
30462;SDS011;17256;43.618;25.336;2023-02-15T18:52:45;41.13;;;28.60;;
30462;SDS011;17256;43.618;25.336;2023-02-15T18:55:24;46.10;;;34.63;;
30462;SDS011;17256;43.618;25.336;2023-02-15T18:58:03;50.27;;;36.77;;
30462;SDS011;17256;43.618;25.336;2023-02-15T19:00:32;43.00;;;32.00;;
30462;SDS011;17256;43.618;25.336;2023-02-15T19:03:00;39.43;;;31.37;;
30462;SDS011;17256;43.618;25.336;2023-02-15T19:05:50;35.23;;;26.90;;
30462;SDS011;17256;43.618;25.336;2023-02-15T19:08:20;36.43;;;25.37;;
30462;SDS011;17256;43.618;25.336;2023-02-15T19:10:51;43.00;;;30.23;;
30462;SDS011;17256;43.618;25.336;2023-02-15T19:13:18;34.10;;;24.97;;
30462;SDS011;17256;43.618;25.336;2023-02-15T19:15:47;29.47;;;22.33;;
30462;SDS011;17256;43.618;25.336;2023-02-15T19:18:20;28.47;;;23.10;;
30462;SDS011;17256;43.618;25.336;2023-02-15T19:20:50;27.63;;;20.87;;
30462;SDS011;17256;43.618;25.336;2023-02-15T19:23:23;28.67;;;21.13;;
30462;SDS011;17256;43.618;25.336;2023-02-15T19:25:57;28.73;;;21.97;;
30462;SDS011;17256;43.618;25.336;2023-02-15T19:28:30;31.87;;;23.27;;
30462;SDS011;17256;43.618;25.336;2023-02-15T19:31:04;37.53;;;24.90;;
30462;SDS011;17256;43.618;25.336;2023-02-15T19:33:51;35.80;;;26.20;;
30462;SDS011;17256;43.618;25.336;2023-02-15T19:36:23;36.90;;;26.67;;
30462;SDS011;17256;43.618;25.336;2023-02-15T19:38:51;39.50;;;28.00;;
30462;SDS011;17256;43.618;25.336;2023-02-15T19:41:34;39.13;;;27.80;;
30462;SDS011;17256;43.618;25.336;2023-02-15T19:44:02;37.47;;;25.90;;
30462;SDS011;17256;43.618;25.336;2023-02-15T19:46:30;35.97;;;25.50;;
30462;SDS011;17256;43.618;25.336;2023-02-15T19:48:59;36.50;;;25.43;;
30462;SDS011;17256;43.618;25.336;2023-02-15T19:51:29;41.17;;;26.27;;
30462;SDS011;17256;43.618;25.336;2023-02-15T19:54:01;37.57;;;25.23;;
30462;SDS011;17256;43.618;25.336;2023-02-15T19:56:30;33.50;;;26.27;;
30462;SDS011;17256;43.618;25.336;2023-02-15T19:58:59;33.50;;;24.77;;
30462;SDS011;17256;43.618;25.336;2023-02-15T20:01:32;35.47;;;26.60;;
30462;SDS011;17256;43.618;25.336;2023-02-15T20:04:11;44.27;;;30.10;;
30462;SDS011;17256;43.618;25.336;2023-02-15T20:07:24;66.20;;;38.70;;
30462;SDS011;17256;43.618;25.336;2023-02-15T20:10:01;63.13;;;37.83;;
30462;SDS011;17256;43.618;25.336;2023-02-15T20:13:02;71.57;;;39.90;;
30462;SDS011;17256;43.618;25.336;2023-02-15T20:15:32;59.00;;;35.13;;
30462;SDS011;17256;43.618;25.336;2023-02-15T20:18:03;58.57;;;34.50;;
30462;SDS011;17256;43.618;25.336;2023-02-15T20:20:42;41.43;;;27.90;;
30462;SDS011;17256;43.618;25.336;2023-02-15T20:23:47;38.40;;;26.57;;
30462;SDS011;17256;43.618;25.336;2023-02-15T20:26:16;96.93;;;51.60;;
30462;SDS011;17256;43.618;25.336;2023-02-15T20:29:00;145.37;;;75.83;;
30462;SDS011;17256;43.618;25.336;2023-02-15T20:31:53;83.00;;;48.53;;
30462;SDS011;17256;43.618;25.336;2023-02-15T20:34:27;45.47;;;30.90;;
30462;SDS011;17256;43.618;25.336;2023-02-15T20:37:26;43.83;;;28.43;;
30462;SDS011;17256;43.618;25.336;2023-02-15T20:39:55;34.37;;;24.70;;
30462;SDS011;17256;43.618;25.336;2023-02-15T20:42:44;43.50;;;31.40;;
30462;SDS011;17256;43.618;25.336;2023-02-15T20:45:37;50.97;;;34.03;;
30462;SDS011;17256;43.618;25.336;2023-02-15T20:48:28;37.33;;;26.97;;
30462;SDS011;17256;43.618;25.336;2023-02-15T20:51:25;28.80;;;22.40;;
30462;SDS011;17256;43.618;25.336;2023-02-15T20:54:08;30.33;;;22.37;;
30462;SDS011;17256;43.618;25.336;2023-02-15T20:57:10;26.80;;;19.83;;
30462;SDS011;17256;43.618;25.336;2023-02-15T20:59:40;26.63;;;20.90;;
30462;SDS011;17256;43.618;25.336;2023-02-15T21:02:22;29.50;;;20.23;;
30462;SDS011;17256;43.618;25.336;2023-02-15T21:04:56;25.00;;;18.87;;
30462;SDS011;17256;43.618;25.336;2023-02-15T21:08:15;27.60;;;20.50;;
30462;SDS011;17256;43.618;25.336;2023-02-15T21:10:45;24.83;;;19.53;;
30462;SDS011;17256;43.618;25.336;2023-02-15T21:13:42;25.93;;;19.03;;
30462;SDS011;17256;43.618;25.336;2023-02-15T21:16:14;25.33;;;19.27;;
30462;SDS011;17256;43.618;25.336;2023-02-15T21:18:43;31.13;;;22.07;;
30462;SDS011;17256;43.618;25.336;2023-02-15T21:21:20;29.30;;;22.17;;
30462;SDS011;17256;43.618;25.336;2023-02-15T21:24:33;34.57;;;23.90;;
30462;SDS011;17256;43.618;25.336;2023-02-15T21:27:55;32.73;;;21.80;;
30462;SDS011;17256;43.618;25.336;2023-02-15T21:30:26;31.37;;;23.03;;
30462;SDS011;17256;43.618;25.336;2023-02-15T21:33:19;29.77;;;21.53;;
30462;SDS011;17256;43.618;25.336;2023-02-15T21:36:13;31.87;;;23.70;;
30462;SDS011;17256;43.618;25.336;2023-02-15T21:38:43;31.67;;;24.40;;
30462;SDS011;17256;43.618;25.336;2023-02-15T21:41:14;29.60;;;21.63;;
30462;SDS011;17256;43.618;25.336;2023-02-15T21:44:24;32.00;;;22.87;;
30462;SDS011;17256;43.618;25.336;2023-02-15T21:47:59;29.93;;;22.17;;
30462;SDS011;17256;43.618;25.336;2023-02-15T21:50:28;29.30;;;21.43;;
30462;SDS011;17256;43.618;25.336;2023-02-15T21:53:56;31.57;;;22.37;;
30462;SDS011;17256;43.618;25.336;2023-02-15T21:56:59;26.33;;;20.17;;
30462;SDS011;17256;43.618;25.336;2023-02-15T22:00:25;28.57;;;19.80;;
30462;SDS011;17256;43.618;25.336;2023-02-15T22:03:41;28.43;;;22.27;;
30462;SDS011;17256;43.618;25.336;2023-02-15T22:06:43;29.80;;;21.40;;
30462;SDS011;17256;43.618;25.336;2023-02-15T22:12:56;30.10;;;22.03;;
30462;SDS011;17256;43.618;25.336;2023-02-15T22:15:51;34.57;;;22.47;;
30462;SDS011;17256;43.618;25.336;2023-02-15T22:18:35;31.67;;;22.20;;
30462;SDS011;17256;43.618;25.336;2023-02-15T22:21:59;27.90;;;20.77;;
30462;SDS011;17256;43.618;25.336;2023-02-15T22:25:39;34.37;;;25.27;;
30462;SDS011;17256;43.618;25.336;2023-02-15T22:40:26;31.97;;;22.80;;
30462;SDS011;17256;43.618;25.336;2023-02-15T22:46:57;46.90;;;31.40;;
30462;SDS011;17256;43.618;25.336;2023-02-15T22:57:26;58.20;;;38.70;;
30462;SDS011;17256;43.618;25.336;2023-02-15T23:01:07;60.93;;;39.50;;
30462;SDS011;17256;43.618;25.336;2023-02-15T23:04:33;49.93;;;33.50;;
30462;SDS011;17256;43.618;25.336;2023-02-15T23:11:24;33.17;;;25.63;;
30462;SDS011;17256;43.618;25.336;2023-02-15T23:14:52;36.80;;;24.33;;
30462;SDS011;17256;43.618;25.336;2023-02-15T23:22:34;37.17;;;25.47;;
30462;SDS011;17256;43.618;25.336;2023-02-15T23:29:45;34.47;;;22.60;;
30462;SDS011;17256;43.618;25.336;2023-02-15T23:33:00;36.53;;;23.63;;
30462;SDS011;17256;43.618;25.336;2023-02-15T23:53:49;59.63;;;41.60;;
